sensor_id;sensor_type;location;lat;lon;timestamp;P1;durP1;ratioP1;P2;durP2;ratioP2
59147;SDS011;44930;52.878;6.168;2023-04-06T00:00:45;8.00;;;5.47;;
59147;SDS011;44930;52.878;6.168;2023-04-06T00:03:13;9.25;;;4.32;;
59147;SDS011;44930;52.878;6.168;2023-04-06T00:05:38;7.65;;;4.72;;
59147;SDS011;44930;52.878;6.168;2023-04-06T00:08:04;8.52;;;5.25;;
59147;SDS011;44930;52.878;6.168;2023-04-06T00:10:30;10.27;;;5.40;;
59147;SDS011;44930;52.878;6.168;2023-04-06T00:12:55;8.43;;;5.22;;
59147;SDS011;44930;52.878;6.168;2023-04-06T00:15:22;8.25;;;4.32;;
59147;SDS011;44930;52.878;6.168;2023-04-06T00:17:48;10.75;;;5.40;;
59147;SDS011;44930;52.878;6.168;2023-04-06T00:20:14;7.07;;;4.80;;
59147;SDS011;44930;52.878;6.168;2023-04-06T00:22:40;9.80;;;5.35;;
59147;SDS011;44930;52.878;6.168;2023-04-06T00:25:06;6.60;;;5.07;;
59147;SDS011;44930;52.878;6.168;2023-04-06T00:27:32;10.77;;;5.80;;
59147;SDS011;44930;52.878;6.168;2023-04-06T00:29:57;7.13;;;5.25;;
59147;SDS011;44930;52.878;6.168;2023-04-06T00:32:23;9.05;;;5.40;;
59147;SDS011;44930;52.878;6.168;2023-04-06T00:34:48;7.35;;;5.43;;
59147;SDS011;44930;52.878;6.168;2023-04-06T00:37:15;7.40;;;5.15;;
59147;SDS011;44930;52.878;6.168;2023-04-06T00:39:42;9.23;;;5.10;;
59147;SDS011;44930;52.878;6.168;2023-04-06T00:42:10;9.82;;;4.75;;
59147;SDS011;44930;52.878;6.168;2023-04-06T00:44:42;6.85;;;4.85;;
59147;SDS011;44930;52.878;6.168;2023-04-06T00:47:08;9.73;;;5.07;;
59147;SDS011;44930;52.878;6.168;2023-04-06T00:49:34;9.30;;;5.35;;
59147;SDS011;44930;52.878;6.168;2023-04-06T00:52:00;7.25;;;5.22;;
59147;SDS011;44930;52.878;6.168;2023-04-06T00:54:26;9.23;;;5.05;;
59147;SDS011;44930;52.878;6.168;2023-04-06T00:56:53;6.93;;;4.72;;
59147;SDS011;44930;52.878;6.168;2023-04-06T00:59:20;8.75;;;5.65;;
59147;SDS011;44930;52.878;6.168;2023-04-06T01:01:45;7.60;;;5.00;;
59147;SDS011;44930;52.878;6.168;2023-04-06T01:04:11;8.23;;;5.10;;
59147;SDS011;44930;52.878;6.168;2023-04-06T01:06:36;9.90;;;5.53;;
59147;SDS011;44930;52.878;6.168;2023-04-06T01:09:02;7.07;;;5.13;;
59147;SDS011;44930;52.878;6.168;2023-04-06T01:11:28;10.00;;;5.72;;
59147;SDS011;44930;52.878;6.168;2023-04-06T01:13:53;8.02;;;5.30;;
59147;SDS011;44930;52.878;6.168;2023-04-06T01:16:19;10.68;;;5.97;;
59147;SDS011;44930;52.878;6.168;2023-04-06T01:18:44;7.90;;;5.60;;
59147;SDS011;44930;52.878;6.168;2023-04-06T01:21:10;8.57;;;5.55;;
59147;SDS011;44930;52.878;6.168;2023-04-06T01:23:42;7.97;;;5.20;;
59147;SDS011;44930;52.878;6.168;2023-04-06T01:26:08;10.02;;;5.50;;
59147;SDS011;44930;52.878;6.168;2023-04-06T01:28:34;9.40;;;5.35;;
59147;SDS011;44930;52.878;6.168;2023-04-06T01:31:02;7.32;;;5.82;;
59147;SDS011;44930;52.878;6.168;2023-04-06T01:33:27;10.93;;;5.68;;
59147;SDS011;44930;52.878;6.168;2023-04-06T01:35:53;8.85;;;5.43;;
59147;SDS011;44930;52.878;6.168;2023-04-06T01:38:19;8.02;;;4.97;;
59147;SDS011;44930;52.878;6.168;2023-04-06T01:40:44;7.45;;;5.97;;
59147;SDS011;44930;52.878;6.168;2023-04-06T01:43:10;7.38;;;5.38;;
59147;SDS011;44930;52.878;6.168;2023-04-06T01:45:35;8.95;;;5.43;;
59147;SDS011;44930;52.878;6.168;2023-04-06T01:48:01;8.75;;;5.63;;
59147;SDS011;44930;52.878;6.168;2023-04-06T01:50:26;9.10;;;5.20;;
59147;SDS011;44930;52.878;6.168;2023-04-06T01:52:52;8.40;;;5.90;;
59147;SDS011;44930;52.878;6.168;2023-04-06T01:55:17;7.07;;;5.60;;
59147;SDS011;44930;52.878;6.168;2023-04-06T01:57:43;9.63;;;6.10;;
59147;SDS011;44930;52.878;6.168;2023-04-06T02:00:08;7.97;;;6.05;;
59147;SDS011;44930;52.878;6.168;2023-04-06T02:02:34;10.15;;;5.43;;
59147;SDS011;44930;52.878;6.168;2023-04-06T02:05:00;8.43;;;5.40;;
59147;SDS011;44930;52.878;6.168;2023-04-06T02:07:26;8.77;;;5.90;;
59147;SDS011;44930;52.878;6.168;2023-04-06T02:09:53;8.93;;;4.95;;
59147;SDS011;44930;52.878;6.168;2023-04-06T02:12:20;9.27;;;6.13;;
59147;SDS011;44930;52.878;6.168;2023-04-06T02:14:45;9.18;;;5.53;;
59147;SDS011;44930;52.878;6.168;2023-04-06T02:17:11;8.20;;;5.07;;
59147;SDS011;44930;52.878;6.168;2023-04-06T02:19:36;6.65;;;4.93;;
59147;SDS011;44930;52.878;6.168;2023-04-06T02:22:02;9.52;;;5.57;;
59147;SDS011;44930;52.878;6.168;2023-04-06T02:24:27;6.82;;;5.18;;
59147;SDS011;44930;52.878;6.168;2023-04-06T02:26:53;8.27;;;5.57;;
59147;SDS011;44930;52.878;6.168;2023-04-06T02:29:18;9.00;;;5.43;;
59147;SDS011;44930;52.878;6.168;2023-04-06T02:31:45;9.65;;;6.00;;
59147;SDS011;44930;52.878;6.168;2023-04-06T02:34:10;8.68;;;5.63;;
59147;SDS011;44930;52.878;6.168;2023-04-06T02:36:42;8.98;;;5.57;;
59147;SDS011;44930;52.878;6.168;2023-04-06T02:39:09;10.20;;;5.95;;
59147;SDS011;44930;52.878;6.168;2023-04-06T02:41:35;10.90;;;5.78;;
59147;SDS011;44930;52.878;6.168;2023-04-06T02:44:00;7.05;;;5.40;;
59147;SDS011;44930;52.878;6.168;2023-04-06T02:46:26;12.45;;;5.78;;
59147;SDS011;44930;52.878;6.168;2023-04-06T02:48:52;9.48;;;5.82;;
59147;SDS011;44930;52.878;6.168;2023-04-06T02:51:18;7.57;;;5.07;;
59147;SDS011;44930;52.878;6.168;2023-04-06T02:53:43;7.25;;;5.57;;
59147;SDS011;44930;52.878;6.168;2023-04-06T02:56:09;9.52;;;6.00;;
59147;SDS011;44930;52.878;6.168;2023-04-06T02:58:35;10.55;;;5.75;;
59147;SDS011;44930;52.878;6.168;2023-04-06T03:01:01;11.30;;;6.32;;
59147;SDS011;44930;52.878;6.168;2023-04-06T03:03:28;7.85;;;6.10;;
59147;SDS011;44930;52.878;6.168;2023-04-06T03:05:53;10.05;;;6.38;;
59147;SDS011;44930;52.878;6.168;2023-04-06T03:08:21;7.20;;;5.28;;
59147;SDS011;44930;52.878;6.168;2023-04-06T03:10:46;11.02;;;5.75;;
59147;SDS011;44930;52.878;6.168;2023-04-06T03:13:12;8.80;;;5.63;;
59147;SDS011;44930;52.878;6.168;2023-04-06T03:15:37;10.70;;;5.97;;
59147;SDS011;44930;52.878;6.168;2023-04-06T03:18:03;8.50;;;5.72;;
59147;SDS011;44930;52.878;6.168;2023-04-06T03:20:28;12.35;;;5.68;;
59147;SDS011;44930;52.878;6.168;2023-04-06T03:22:55;9.40;;;6.35;;
59147;SDS011;44930;52.878;6.168;2023-04-06T03:25:20;9.68;;;5.55;;
59147;SDS011;44930;52.878;6.168;2023-04-06T03:27:46;11.25;;;5.80;;
59147;SDS011;44930;52.878;6.168;2023-04-06T03:30:11;10.65;;;6.32;;
59147;SDS011;44930;52.878;6.168;2023-04-06T03:32:37;8.88;;;5.85;;
59147;SDS011;44930;52.878;6.168;2023-04-06T03:35:03;9.57;;;5.70;;
59147;SDS011;44930;52.878;6.168;2023-04-06T03:37:29;9.13;;;5.80;;
59147;SDS011;44930;52.878;6.168;2023-04-06T03:39:55;7.80;;;5.88;;
59147;SDS011;44930;52.878;6.168;2023-04-06T03:42:20;7.85;;;5.68;;
59147;SDS011;44930;52.878;6.168;2023-04-06T03:44:46;11.70;;;5.80;;
59147;SDS011;44930;52.878;6.168;2023-04-06T03:47:11;8.15;;;6.18;;
59147;SDS011;44930;52.878;6.168;2023-04-06T03:49:37;11.02;;;5.75;;
59147;SDS011;44930;52.878;6.168;2023-04-06T03:52:02;8.82;;;6.05;;
59147;SDS011;44930;52.878;6.168;2023-04-06T03:54:28;8.82;;;6.30;;
59147;SDS011;44930;52.878;6.168;2023-04-06T03:56:53;8.75;;;6.18;;
59147;SDS011;44930;52.878;6.168;2023-04-06T03:59:20;9.73;;;6.43;;
59147;SDS011;44930;52.878;6.168;2023-04-06T04:01:45;7.75;;;6.03;;
59147;SDS011;44930;52.878;6.168;2023-04-06T04:04:11;10.05;;;6.97;;
59147;SDS011;44930;52.878;6.168;2023-04-06T04:06:36;9.95;;;6.50;;
59147;SDS011;44930;52.878;6.168;2023-04-06T04:09:02;7.72;;;5.78;;
59147;SDS011;44930;52.878;6.168;2023-04-06T04:11:28;12.10;;;6.47;;
59147;SDS011;44930;52.878;6.168;2023-04-06T04:13:53;10.18;;;6.30;;
59147;SDS011;44930;52.878;6.168;2023-04-06T04:16:19;11.50;;;7.97;;
59147;SDS011;44930;52.878;6.168;2023-04-06T04:18:44;9.57;;;6.45;;
59147;SDS011;44930;52.878;6.168;2023-04-06T04:21:12;10.93;;;6.47;;
59147;SDS011;44930;52.878;6.168;2023-04-06T04:23:37;11.07;;;7.00;;
59147;SDS011;44930;52.878;6.168;2023-04-06T04:26:03;12.18;;;7.82;;
59147;SDS011;44930;52.878;6.168;2023-04-06T04:28:29;10.05;;;6.40;;
59147;SDS011;44930;52.878;6.168;2023-04-06T04:30:54;10.68;;;6.55;;
59147;SDS011;44930;52.878;6.168;2023-04-06T04:33:20;9.90;;;6.68;;
59147;SDS011;44930;52.878;6.168;2023-04-06T04:35:46;11.45;;;6.40;;
59147;SDS011;44930;52.878;6.168;2023-04-06T04:38:11;11.55;;;7.63;;
59147;SDS011;44930;52.878;6.168;2023-04-06T04:40:37;9.80;;;6.57;;
59147;SDS011;44930;52.878;6.168;2023-04-06T04:43:03;12.10;;;7.13;;
59147;SDS011;44930;52.878;6.168;2023-04-06T04:45:28;11.85;;;7.25;;
59147;SDS011;44930;52.878;6.168;2023-04-06T04:47:54;11.75;;;6.43;;
59147;SDS011;44930;52.878;6.168;2023-04-06T04:50:19;9.07;;;7.53;;
59147;SDS011;44930;52.878;6.168;2023-04-06T04:52:45;11.43;;;7.13;;
59147;SDS011;44930;52.878;6.168;2023-04-06T04:55:11;11.60;;;7.70;;
59147;SDS011;44930;52.878;6.168;2023-04-06T04:57:36;9.77;;;7.30;;
59147;SDS011;44930;52.878;6.168;2023-04-06T05:00:02;9.50;;;6.72;;
59147;SDS011;44930;52.878;6.168;2023-04-06T05:02:28;9.95;;;7.10;;
59147;SDS011;44930;52.878;6.168;2023-04-06T05:04:54;13.65;;;7.20;;
59147;SDS011;44930;52.878;6.168;2023-04-06T05:07:19;9.90;;;7.00;;
59147;SDS011;44930;52.878;6.168;2023-04-06T05:09:46;9.02;;;6.78;;
59147;SDS011;44930;52.878;6.168;2023-04-06T05:12:11;15.38;;;7.53;;
59147;SDS011;44930;52.878;6.168;2023-04-06T05:14:37;11.18;;;7.55;;
59147;SDS011;44930;52.878;6.168;2023-04-06T05:17:02;10.93;;;7.47;;
59147;SDS011;44930;52.878;6.168;2023-04-06T05:19:29;12.82;;;7.72;;
59147;SDS011;44930;52.878;6.168;2023-04-06T05:21:54;9.23;;;7.05;;
59147;SDS011;44930;52.878;6.168;2023-04-06T05:24:20;14.95;;;7.50;;
59147;SDS011;44930;52.878;6.168;2023-04-06T05:26:46;10.38;;;7.65;;
59147;SDS011;44930;52.878;6.168;2023-04-06T05:29:11;11.95;;;7.53;;
59147;SDS011;44930;52.878;6.168;2023-04-06T05:31:37;12.40;;;7.93;;
59147;SDS011;44930;52.878;6.168;2023-04-06T05:34:03;12.93;;;7.93;;
59147;SDS011;44930;52.878;6.168;2023-04-06T05:36:28;10.82;;;7.10;;
59147;SDS011;44930;52.878;6.168;2023-04-06T05:38:55;14.30;;;9.02;;
59147;SDS011;44930;52.878;6.168;2023-04-06T05:41:21;10.07;;;7.82;;
59147;SDS011;44930;52.878;6.168;2023-04-06T05:43:47;14.18;;;6.97;;
59147;SDS011;44930;52.878;6.168;2023-04-06T05:46:12;12.32;;;7.57;;
59147;SDS011;44930;52.878;6.168;2023-04-06T05:48:38;13.02;;;7.70;;
59147;SDS011;44930;52.878;6.168;2023-04-06T05:51:03;14.57;;;7.80;;
59147;SDS011;44930;52.878;6.168;2023-04-06T05:53:31;13.43;;;8.02;;
59147;SDS011;44930;52.878;6.168;2023-04-06T05:56:00;11.55;;;8.15;;
59147;SDS011;44930;52.878;6.168;2023-04-06T05:58:26;13.40;;;7.55;;
59147;SDS011;44930;52.878;6.168;2023-04-06T06:00:58;14.85;;;7.93;;
59147;SDS011;44930;52.878;6.168;2023-04-06T06:03:24;13.95;;;8.63;;
59147;SDS011;44930;52.878;6.168;2023-04-06T06:05:50;14.38;;;8.70;;
59147;SDS011;44930;52.878;6.168;2023-04-06T06:08:16;12.05;;;8.52;;
59147;SDS011;44930;52.878;6.168;2023-04-06T06:10:41;14.77;;;9.05;;
59147;SDS011;44930;52.878;6.168;2023-04-06T06:13:07;12.95;;;7.72;;
59147;SDS011;44930;52.878;6.168;2023-04-06T06:15:33;10.73;;;7.88;;
59147;SDS011;44930;52.878;6.168;2023-04-06T06:17:59;11.75;;;8.00;;
59147;SDS011;44930;52.878;6.168;2023-04-06T06:20:25;10.98;;;7.53;;
59147;SDS011;44930;52.878;6.168;2023-04-06T06:22:51;11.05;;;8.32;;
59147;SDS011;44930;52.878;6.168;2023-04-06T06:25:17;10.13;;;7.85;;
59147;SDS011;44930;52.878;6.168;2023-04-06T06:27:42;13.95;;;8.38;;
59147;SDS011;44930;52.878;6.168;2023-04-06T06:30:08;11.43;;;8.32;;
59147;SDS011;44930;52.878;6.168;2023-04-06T06:32:34;11.20;;;7.43;;
59147;SDS011;44930;52.878;6.168;2023-04-06T06:35:00;12.02;;;7.97;;
59147;SDS011;44930;52.878;6.168;2023-04-06T06:37:25;13.35;;;8.20;;
59147;SDS011;44930;52.878;6.168;2023-04-06T06:39:51;13.70;;;8.30;;
59147;SDS011;44930;52.878;6.168;2023-04-06T06:42:16;12.23;;;8.15;;
59147;SDS011;44930;52.878;6.168;2023-04-06T06:44:42;12.43;;;8.35;;
59147;SDS011;44930;52.878;6.168;2023-04-06T06:47:07;10.13;;;7.75;;
59147;SDS011;44930;52.878;6.168;2023-04-06T06:49:33;13.82;;;8.40;;
59147;SDS011;44930;52.878;6.168;2023-04-06T06:51:59;13.02;;;8.10;;
59147;SDS011;44930;52.878;6.168;2023-04-06T06:54:24;13.40;;;8.77;;
59147;SDS011;44930;52.878;6.168;2023-04-06T06:56:50;12.02;;;7.47;;
59147;SDS011;44930;52.878;6.168;2023-04-06T06:59:16;11.35;;;8.57;;
59147;SDS011;44930;52.878;6.168;2023-04-06T07:01:41;12.95;;;8.63;;
59147;SDS011;44930;52.878;6.168;2023-04-06T07:04:07;13.30;;;8.20;;
59147;SDS011;44930;52.878;6.168;2023-04-06T07:06:34;11.13;;;7.95;;
59147;SDS011;44930;52.878;6.168;2023-04-06T07:09:00;12.35;;;8.32;;
59147;SDS011;44930;52.878;6.168;2023-04-06T07:11:28;19.73;;;7.93;;
59147;SDS011;44930;52.878;6.168;2023-04-06T07:13:54;16.40;;;8.23;;
59147;SDS011;44930;52.878;6.168;2023-04-06T07:16:20;12.98;;;8.07;;
59147;SDS011;44930;52.878;6.168;2023-04-06T07:18:46;14.13;;;8.55;;
59147;SDS011;44930;52.878;6.168;2023-04-06T07:21:11;14.93;;;8.85;;
59147;SDS011;44930;52.878;6.168;2023-04-06T07:23:37;10.80;;;7.85;;
59147;SDS011;44930;52.878;6.168;2023-04-06T07:26:03;13.48;;;8.90;;
59147;SDS011;44930;52.878;6.168;2023-04-06T07:28:29;16.58;;;8.65;;
59147;SDS011;44930;52.878;6.168;2023-04-06T07:30:54;12.57;;;9.35;;
59147;SDS011;44930;52.878;6.168;2023-04-06T07:33:20;13.48;;;8.65;;
59147;SDS011;44930;52.878;6.168;2023-04-06T07:35:45;17.52;;;10.10;;
59147;SDS011;44930;52.878;6.168;2023-04-06T07:38:11;14.38;;;9.40;;
59147;SDS011;44930;52.878;6.168;2023-04-06T07:40:37;14.38;;;9.88;;
59147;SDS011;44930;52.878;6.168;2023-04-06T07:43:02;11.05;;;7.90;;
59147;SDS011;44930;52.878;6.168;2023-04-06T07:45:28;17.42;;;9.15;;
59147;SDS011;44930;52.878;6.168;2023-04-06T07:47:54;13.52;;;8.77;;
59147;SDS011;44930;52.878;6.168;2023-04-06T07:50:20;18.20;;;9.07;;
59147;SDS011;44930;52.878;6.168;2023-04-06T07:52:46;16.42;;;9.45;;
59147;SDS011;44930;52.878;6.168;2023-04-06T07:55:11;14.02;;;8.60;;
59147;SDS011;44930;52.878;6.168;2023-04-06T07:57:37;15.65;;;9.20;;
59147;SDS011;44930;52.878;6.168;2023-04-06T08:00:03;14.43;;;8.95;;
59147;SDS011;44930;52.878;6.168;2023-04-06T08:02:30;14.25;;;8.40;;
59147;SDS011;44930;52.878;6.168;2023-04-06T08:04:58;12.48;;;9.50;;
59147;SDS011;44930;52.878;6.168;2023-04-06T08:07:24;11.18;;;8.20;;
59147;SDS011;44930;52.878;6.168;2023-04-06T08:09:51;19.35;;;9.07;;
59147;SDS011;44930;52.878;6.168;2023-04-06T08:12:17;11.65;;;9.07;;
59147;SDS011;44930;52.878;6.168;2023-04-06T08:14:43;12.68;;;8.85;;
59147;SDS011;44930;52.878;6.168;2023-04-06T08:17:08;14.57;;;9.50;;
59147;SDS011;44930;52.878;6.168;2023-04-06T08:19:34;12.35;;;8.65;;
59147;SDS011;44930;52.878;6.168;2023-04-06T08:22:00;14.73;;;9.55;;
59147;SDS011;44930;52.878;6.168;2023-04-06T08:24:25;14.32;;;8.80;;
59147;SDS011;44930;52.878;6.168;2023-04-06T08:26:51;12.02;;;8.90;;
59147;SDS011;44930;52.878;6.168;2023-04-06T08:29:17;17.88;;;10.07;;
59147;SDS011;44930;52.878;6.168;2023-04-06T08:31:43;23.25;;;10.27;;
59147;SDS011;44930;52.878;6.168;2023-04-06T08:34:09;16.38;;;10.40;;
59147;SDS011;44930;52.878;6.168;2023-04-06T08:36:35;13.18;;;9.65;;
59147;SDS011;44930;52.878;6.168;2023-04-06T08:39:00;18.70;;;11.32;;
59147;SDS011;44930;52.878;6.168;2023-04-06T08:41:27;16.45;;;11.07;;
59147;SDS011;44930;52.878;6.168;2023-04-06T08:43:54;15.38;;;10.50;;
59147;SDS011;44930;52.878;6.168;2023-04-06T08:46:22;16.55;;;10.90;;
59147;SDS011;44930;52.878;6.168;2023-04-06T08:48:58;18.27;;;11.68;;
59147;SDS011;44930;52.878;6.168;2023-04-06T08:51:25;17.10;;;11.93;;
59147;SDS011;44930;52.878;6.168;2023-04-06T08:53:55;15.13;;;10.65;;
59147;SDS011;44930;52.878;6.168;2023-04-06T08:56:22;15.25;;;11.38;;
59147;SDS011;44930;52.878;6.168;2023-04-06T08:58:49;19.33;;;11.63;;
59147;SDS011;44930;52.878;6.168;2023-04-06T09:01:16;17.10;;;11.30;;
59147;SDS011;44930;52.878;6.168;2023-04-06T09:03:43;17.40;;;11.77;;
59147;SDS011;44930;52.878;6.168;2023-04-06T09:06:10;19.00;;;12.18;;
59147;SDS011;44930;52.878;6.168;2023-04-06T09:08:38;18.33;;;12.43;;
59147;SDS011;44930;52.878;6.168;2023-04-06T09:11:04;19.00;;;11.75;;
59147;SDS011;44930;52.878;6.168;2023-04-06T09:13:31;18.80;;;13.25;;
59147;SDS011;44930;52.878;6.168;2023-04-06T09:16:03;15.38;;;12.02;;
59147;SDS011;44930;52.878;6.168;2023-04-06T09:18:31;21.38;;;12.52;;
59147;SDS011;44930;52.878;6.168;2023-04-06T09:21:01;19.88;;;11.93;;
59147;SDS011;44930;52.878;6.168;2023-04-06T09:23:28;16.73;;;11.35;;
59147;SDS011;44930;52.878;6.168;2023-04-06T09:28:58;21.17;;;13.30;;
59147;SDS011;44930;52.878;6.168;2023-04-06T09:31:25;19.50;;;12.43;;
59147;SDS011;44930;52.878;6.168;2023-04-06T09:33:52;18.80;;;12.35;;
59147;SDS011;44930;52.878;6.168;2023-04-06T09:36:18;24.83;;;13.90;;
59147;SDS011;44930;52.878;6.168;2023-04-06T09:38:57;21.85;;;13.43;;
59147;SDS011;44930;52.878;6.168;2023-04-06T09:41:27;17.92;;;12.63;;
59147;SDS011;44930;52.878;6.168;2023-04-06T09:44:01;19.90;;;14.43;;
59147;SDS011;44930;52.878;6.168;2023-04-06T09:46:35;19.77;;;12.98;;
59147;SDS011;44930;52.878;6.168;2023-04-06T09:49:03;19.85;;;13.55;;
59147;SDS011;44930;52.878;6.168;2023-04-06T09:51:30;19.42;;;14.82;;
59147;SDS011;44930;52.878;6.168;2023-04-06T09:54:01;23.15;;;14.15;;
59147;SDS011;44930;52.878;6.168;2023-04-06T09:56:30;18.40;;;13.10;;
59147;SDS011;44930;52.878;6.168;2023-04-06T09:59:01;21.85;;;13.23;;
59147;SDS011;44930;52.878;6.168;2023-04-06T10:01:30;19.92;;;13.93;;
59147;SDS011;44930;52.878;6.168;2023-04-06T10:04:05;22.13;;;14.30;;
59147;SDS011;44930;52.878;6.168;2023-04-06T10:06:46;22.35;;;15.30;;
59147;SDS011;44930;52.878;6.168;2023-04-06T10:09:17;20.77;;;14.10;;
59147;SDS011;44930;52.878;6.168;2023-04-06T10:11:45;26.10;;;15.30;;
59147;SDS011;44930;52.878;6.168;2023-04-06T10:14:12;19.38;;;13.98;;
59147;SDS011;44930;52.878;6.168;2023-04-06T10:16:38;24.25;;;14.88;;
59147;SDS011;44930;52.878;6.168;2023-04-06T10:19:06;24.88;;;16.27;;
59147;SDS011;44930;52.878;6.168;2023-04-06T10:21:38;22.13;;;14.80;;
59147;SDS011;44930;52.878;6.168;2023-04-06T10:24:08;19.75;;;13.95;;
59147;SDS011;44930;52.878;6.168;2023-04-06T10:26:35;22.55;;;15.95;;
59147;SDS011;44930;52.878;6.168;2023-04-06T10:29:02;28.02;;;14.95;;
59147;SDS011;44930;52.878;6.168;2023-04-06T10:31:28;22.77;;;14.85;;
59147;SDS011;44930;52.878;6.168;2023-04-06T10:33:58;22.90;;;15.30;;
59147;SDS011;44930;52.878;6.168;2023-04-06T10:36:25;26.27;;;16.92;;
59147;SDS011;44930;52.878;6.168;2023-04-06T10:38:56;23.58;;;15.63;;
59147;SDS011;44930;52.878;6.168;2023-04-06T10:41:23;22.30;;;14.93;;
59147;SDS011;44930;52.878;6.168;2023-04-06T10:44:00;23.52;;;15.25;;
59147;SDS011;44930;52.878;6.168;2023-04-06T10:46:28;23.33;;;15.40;;
59147;SDS011;44930;52.878;6.168;2023-04-06T10:48:55;26.35;;;17.95;;
59147;SDS011;44930;52.878;6.168;2023-04-06T10:51:24;22.33;;;15.23;;
59147;SDS011;44930;52.878;6.168;2023-04-06T10:53:54;27.60;;;16.88;;
59147;SDS011;44930;52.878;6.168;2023-04-06T10:56:24;25.45;;;16.05;;
59147;SDS011;44930;52.878;6.168;2023-04-06T10:58:53;22.70;;;14.43;;
59147;SDS011;44930;52.878;6.168;2023-04-06T11:01:23;24.48;;;15.60;;
59147;SDS011;44930;52.878;6.168;2023-04-06T11:03:52;24.02;;;15.52;;
59147;SDS011;44930;52.878;6.168;2023-04-06T11:06:19;25.40;;;15.73;;
59147;SDS011;44930;52.878;6.168;2023-04-06T11:08:45;27.00;;;15.20;;
59147;SDS011;44930;52.878;6.168;2023-04-06T11:11:11;25.08;;;15.15;;
59147;SDS011;44930;52.878;6.168;2023-04-06T11:16:12;25.60;;;16.45;;
59147;SDS011;44930;52.878;6.168;2023-04-06T11:18:46;22.33;;;15.32;;
59147;SDS011;44930;52.878;6.168;2023-04-06T11:21:12;21.85;;;14.85;;
59147;SDS011;44930;52.878;6.168;2023-04-06T11:23:38;24.92;;;15.75;;
59147;SDS011;44930;52.878;6.168;2023-04-06T11:26:04;24.75;;;16.52;;
59147;SDS011;44930;52.878;6.168;2023-04-06T11:28:29;25.50;;;15.68;;
59147;SDS011;44930;52.878;6.168;2023-04-06T11:30:55;24.13;;;16.10;;
59147;SDS011;44930;52.878;6.168;2023-04-06T11:33:21;24.13;;;16.15;;
59147;SDS011;44930;52.878;6.168;2023-04-06T11:35:47;28.67;;;16.20;;
59147;SDS011;44930;52.878;6.168;2023-04-06T11:38:13;25.02;;;16.05;;
59147;SDS011;44930;52.878;6.168;2023-04-06T11:40:39;31.13;;;16.10;;
59147;SDS011;44930;52.878;6.168;2023-04-06T11:43:04;24.77;;;16.55;;
59147;SDS011;44930;52.878;6.168;2023-04-06T11:45:49;24.52;;;16.58;;
59147;SDS011;44930;52.878;6.168;2023-04-06T11:48:19;23.23;;;15.60;;
59147;SDS011;44930;52.878;6.168;2023-04-06T11:50:46;25.30;;;16.90;;
59147;SDS011;44930;52.878;6.168;2023-04-06T11:53:13;22.20;;;15.13;;
59147;SDS011;44930;52.878;6.168;2023-04-06T11:55:39;25.42;;;15.57;;
59147;SDS011;44930;52.878;6.168;2023-04-06T11:58:05;23.50;;;15.77;;
59147;SDS011;44930;52.878;6.168;2023-04-06T12:00:32;24.95;;;15.55;;
59147;SDS011;44930;52.878;6.168;2023-04-06T12:02:59;26.70;;;16.08;;
59147;SDS011;44930;52.878;6.168;2023-04-06T12:05:25;23.35;;;15.82;;
59147;SDS011;44930;52.878;6.168;2023-04-06T12:07:51;24.85;;;15.23;;
59147;SDS011;44930;52.878;6.168;2023-04-06T12:10:16;22.55;;;15.57;;
59147;SDS011;44930;52.878;6.168;2023-04-06T12:12:42;26.20;;;16.05;;
59147;SDS011;44930;52.878;6.168;2023-04-06T12:15:08;25.67;;;15.25;;
59147;SDS011;44930;52.878;6.168;2023-04-06T12:17:34;24.10;;;16.02;;
59147;SDS011;44930;52.878;6.168;2023-04-06T12:20:00;24.42;;;15.15;;
59147;SDS011;44930;52.878;6.168;2023-04-06T12:22:25;25.83;;;15.55;;
59147;SDS011;44930;52.878;6.168;2023-04-06T12:24:51;23.17;;;14.23;;
59147;SDS011;44930;52.878;6.168;2023-04-06T12:27:16;25.88;;;15.93;;
59147;SDS011;44930;52.878;6.168;2023-04-06T12:29:42;24.45;;;15.70;;
59147;SDS011;44930;52.878;6.168;2023-04-06T12:32:08;21.02;;;15.40;;
59147;SDS011;44930;52.878;6.168;2023-04-06T12:34:33;22.98;;;15.15;;
59147;SDS011;44930;52.878;6.168;2023-04-06T12:36:59;20.65;;;13.90;;
59147;SDS011;44930;52.878;6.168;2023-04-06T12:39:25;18.70;;;11.38;;
59147;SDS011;44930;52.878;6.168;2023-04-06T12:41:52;21.10;;;14.10;;
59147;SDS011;44930;52.878;6.168;2023-04-06T12:44:18;21.88;;;14.10;;
59147;SDS011;44930;52.878;6.168;2023-04-06T12:46:44;18.63;;;12.93;;
59147;SDS011;44930;52.878;6.168;2023-04-06T12:49:10;21.90;;;12.30;;
59147;SDS011;44930;52.878;6.168;2023-04-06T12:51:36;17.02;;;10.35;;
59147;SDS011;44930;52.878;6.168;2023-04-06T12:54:01;14.23;;;9.35;;
59147;SDS011;44930;52.878;6.168;2023-04-06T12:56:27;17.80;;;12.32;;
59147;SDS011;44930;52.878;6.168;2023-04-06T12:58:52;16.92;;;12.15;;
59147;SDS011;44930;52.878;6.168;2023-04-06T13:01:18;17.33;;;10.63;;
59147;SDS011;44930;52.878;6.168;2023-04-06T13:03:45;11.82;;;9.73;;
59147;SDS011;44930;52.878;6.168;2023-04-06T13:06:10;15.07;;;9.18;;
59147;SDS011;44930;52.878;6.168;2023-04-06T13:08:36;13.25;;;9.10;;
59147;SDS011;44930;52.878;6.168;2023-04-06T13:11:04;12.20;;;9.07;;
59147;SDS011;44930;52.878;6.168;2023-04-06T13:13:31;11.90;;;6.35;;
59147;SDS011;44930;52.878;6.168;2023-04-06T13:16:02;12.05;;;6.95;;
59147;SDS011;44930;52.878;6.168;2023-04-06T13:18:32;9.80;;;6.38;;
59147;SDS011;44930;52.878;6.168;2023-04-06T13:20:59;11.88;;;6.68;;
59147;SDS011;44930;52.878;6.168;2023-04-06T13:23:24;10.35;;;6.70;;
59147;SDS011;44930;52.878;6.168;2023-04-06T13:25:57;11.57;;;7.68;;
59147;SDS011;44930;52.878;6.168;2023-04-06T13:28:23;13.98;;;8.20;;
59147;SDS011;44930;52.878;6.168;2023-04-06T13:30:49;13.10;;;8.32;;
59147;SDS011;44930;52.878;6.168;2023-04-06T13:33:15;13.80;;;9.48;;
59147;SDS011;44930;52.878;6.168;2023-04-06T13:35:43;13.07;;;9.85;;
59147;SDS011;44930;52.878;6.168;2023-04-06T13:38:10;16.50;;;10.48;;
59147;SDS011;44930;52.878;6.168;2023-04-06T13:40:38;18.00;;;9.60;;
59147;SDS011;44930;52.878;6.168;2023-04-06T13:43:05;14.70;;;10.15;;
59147;SDS011;44930;52.878;6.168;2023-04-06T13:45:30;18.15;;;10.43;;
59147;SDS011;44930;52.878;6.168;2023-04-06T13:47:56;15.88;;;10.57;;
59147;SDS011;44930;52.878;6.168;2023-04-06T13:50:21;17.02;;;10.77;;
59147;SDS011;44930;52.878;6.168;2023-04-06T13:52:47;15.25;;;10.90;;
59147;SDS011;44930;52.878;6.168;2023-04-06T13:55:14;19.40;;;11.40;;
59147;SDS011;44930;52.878;6.168;2023-04-06T13:57:40;16.92;;;12.85;;
59147;SDS011;44930;52.878;6.168;2023-04-06T14:00:06;19.00;;;11.75;;
59147;SDS011;44930;52.878;6.168;2023-04-06T14:02:33;17.33;;;11.73;;
59147;SDS011;44930;52.878;6.168;2023-04-06T14:04:58;20.38;;;12.35;;
59147;SDS011;44930;52.878;6.168;2023-04-06T14:07:24;17.52;;;13.05;;
59147;SDS011;44930;52.878;6.168;2023-04-06T14:09:49;18.20;;;12.50;;
59147;SDS011;44930;52.878;6.168;2023-04-06T14:12:15;22.02;;;13.20;;
59147;SDS011;44930;52.878;6.168;2023-04-06T14:14:41;22.88;;;13.55;;
59147;SDS011;44930;52.878;6.168;2023-04-06T14:17:06;20.73;;;12.90;;
59147;SDS011;44930;52.878;6.168;2023-04-06T14:19:32;20.67;;;13.30;;
59147;SDS011;44930;52.878;6.168;2023-04-06T14:21:58;20.92;;;13.52;;
59147;SDS011;44930;52.878;6.168;2023-04-06T14:24:24;18.73;;;13.10;;
59147;SDS011;44930;52.878;6.168;2023-04-06T14:26:49;19.73;;;13.27;;
59147;SDS011;44930;52.878;6.168;2023-04-06T14:29:15;19.27;;;13.13;;
59147;SDS011;44930;52.878;6.168;2023-04-06T14:31:41;21.60;;;15.65;;
59147;SDS011;44930;52.878;6.168;2023-04-06T14:34:07;19.67;;;14.63;;